Time;durP1;ratioP1;P1;durP2;ratioP2;P2;SDS_P1;SDS_P2;PMS_P1;PMS_P2;Temp;Humidity;BMP_temperature;BMP_pressure;BME280_temperature;BME280_humidity;BME280_pressure;Samples;Min_cycle;Max_cycle;Signal;HPM_P1;HPM_P2
2022/04/06 00:01:33;;;;;;;6.43;3.90;;;;;;;2.92;96.17;97263.31;5045317;28;20033;-40
2022/04/06 00:03:59;;;;;;;7.63;4.50;;;;;;;2.89;96.61;97276.25;5043119;28;20049;-39
2022/04/06 00:06:25;;;;;;;7.75;5.65;;;;;;;2.93;95.82;97275.22;5046055;28;20041;-39
2022/04/06 00:08:50;;;;;;;8.55;6.10;;;;;;;2.96;95.75;97271.72;5050474;28;20047;-38
2022/04/06 00:11:16;;;;;;;10.52;5.68;;;;;;;2.97;93.87;97260.56;5050141;28;20051;-38
2022/04/06 00:13:42;;;;;;;9.20;6.28;;;;;;;3.06;93.55;97267.00;5052140;28;20052;-38
2022/04/06 00:16:07;;;;;;;6.70;4.30;;;;;;;3.08;91.77;97255.78;5059989;28;20047;-39
2022/04/06 00:18:33;;;;;;;7.13;3.95;;;;;;;3.03;91.24;97268.00;5057511;28;20405;-39
2022/04/06 00:20:59;;;;;;;6.38;4.20;;;;;;;3.04;91.16;97264.50;5049566;28;20055;-38
2022/04/06 00:23:25;;;;;;;7.65;5.18;;;;;;;3.07;91.27;97279.78;5048335;28;20040;-39
2022/04/06 00:25:51;;;;;;;9.07;6.50;;;;;;;3.11;90.64;97283.03;5050105;28;20029;-39
2022/04/06 00:28:17;;;;;;;10.02;5.97;;;;;;;3.15;89.95;97282.00;5043818;28;20072;-39
2022/04/06 00:30:42;;;;;;;9.63;6.28;;;;;;;3.18;89.33;97277.59;5047317;28;20110;-38
2022/04/06 00:33:08;;;;;;;10.82;6.80;;;;;;;3.28;89.21;97284.00;5042160;28;20045;-38
2022/04/06 00:35:34;;;;;;;7.55;4.50;;;;;;;3.23;87.91;97285.94;5050559;28;20480;-38
2022/04/06 00:38:05;;;;;;;6.30;4.25;;;;;;;3.22;87.97;97294.53;5041108;28;20052;-38
2022/04/06 00:40:33;;;;;;;8.93;6.03;;;;;;;3.24;87.61;97294.47;5038140;28;20588;-39
2022/04/06 00:42:59;;;;;;;8.30;5.28;;;;;;;3.24;87.22;97297.03;5045373;28;20036;-38
2022/04/06 00:45:25;;;;;;;5.07;3.40;;;;;;;3.18;85.89;97299.84;5043416;28;20472;-39
2022/04/06 00:47:53;;;;;;;5.82;3.42;;;;;;;3.15;85.53;97287.13;5046360;28;20037;-39
2022/04/06 00:50:20;;;;;;;5.18;3.97;;;;;;;3.18;85.45;97305.81;5047249;28;20395;-38
2022/04/06 00:52:48;;;;;;;8.10;4.68;;;;;;;3.16;85.08;97307.63;5046919;28;20429;-39
2022/04/06 00:55:14;;;;;;;8.07;5.10;;;;;;;3.24;85.05;97299.59;5047374;28;20586;-39
2022/04/06 00:57:40;;;;;;;7.65;4.63;;;;;;;3.22;84.84;97303.94;5078887;28;20079;-40
2022/04/06 01:00:07;;;;;;;8.40;5.90;;;;;;;3.28;85.13;97306.25;5037770;28;20048;-39
2022/04/06 01:02:33;;;;;;;6.43;4.07;;;;;;;3.32;84.59;97303.50;5047768;28;20550;-38
2022/04/06 01:04:58;;;;;;;5.03;3.22;;;;;;;3.29;83.86;97313.06;5054685;28;20041;-39
2022/04/06 01:07:24;;;;;;;4.93;3.25;;;;;;;3.28;83.59;97317.38;5060380;28;20047;-38
2022/04/06 01:09:50;;;;;;;8.23;5.32;;;;;;;3.01;83.77;97268.94;5059907;28;20712;-37
2022/04/06 01:12:16;;;;;;;9.45;4.60;;;;;;;3.26;83.57;97310.63;5050798;28;20040;-39
2022/04/06 01:14:42;;;;;;;5.72;3.53;;;;;;;3.23;83.46;97303.06;5063460;28;20102;-38
2022/04/06 01:17:08;;;;;;;6.53;4.38;;;;;;;3.19;83.08;97302.34;5048467;28;20040;-38
2022/04/06 01:19:37;;;;;;;7.18;4.70;;;;;;;3.23;83.25;97314.16;5046361;28;20044;-39
2022/04/06 01:22:10;;;;;;;5.55;3.42;;;;;;;3.22;83.21;97316.78;5044417;28;20052;-39
2022/04/06 01:24:36;;;;;;;6.38;3.95;;;;;;;3.24;82.82;97330.41;5046650;28;20040;-39
2022/04/06 01:27:02;;;;;;;6.53;4.00;;;;;;;3.23;82.95;97321.88;5030824;28;20067;-39
2022/04/06 01:29:28;;;;;;;5.80;3.75;;;;;;;3.23;82.58;97326.16;5044517;28;21125;-38
2022/04/06 01:31:54;;;;;;;7.00;3.75;;;;;;;3.19;82.55;97312.59;5065288;28;20097;-39
2022/04/06 01:34:20;;;;;;;4.80;3.15;;;;;;;3.27;81.92;97320.84;5050915;28;20597;-39
2022/04/06 01:36:46;;;;;;;5.93;4.13;;;;;;;3.28;81.62;97319.94;5074534;28;20044;-38
2022/04/06 01:39:12;;;;;;;4.88;3.47;;;;;;;3.26;81.54;97320.88;5055582;28;20120;-39
2022/04/06 01:41:38;;;;;;;6.20;4.03;;;;;;;3.25;81.06;97330.31;5044216;28;20132;-38
2022/04/06 01:44:05;;;;;;;6.57;4.18;;;;;;;3.24;81.53;97320.97;5045844;28;20064;-39
2022/04/06 01:46:32;;;;;;;8.57;4.63;;;;;;;3.30;81.39;97324.97;5058997;28;20410;-40
2022/04/06 01:54:27;;;;;;;5.55;3.85;;;;;;;3.28;80.89;97342.22;5048804;28;20588;-38
2022/04/06 01:56:53;;;;;;;4.50;2.92;;;;;;;3.24;80.85;97343.25;5051526;28;20123;-39
2022/04/06 01:59:19;;;;;;;5.85;3.53;;;;;;;3.27;80.47;97372.19;5041313;28;20057;-38
2022/04/06 02:01:47;;;;;;;5.45;3.10;;;;;;;3.19;80.58;97347.75;5058417;28;20101;-40
2022/04/06 02:04:14;;;;;;;5.43;3.50;;;;;;;3.18;80.89;97358.91;5081829;28;20102;-39
2022/04/06 02:06:40;;;;;;;5.57;3.53;;;;;;;3.17;80.67;97360.63;5042147;28;20064;-39
2022/04/06 02:09:06;;;;;;;4.55;2.85;;;;;;;3.08;80.44;97329.38;5045001;28;20072;-40
2022/04/06 02:11:32;;;;;;;6.22;4.25;;;;;;;3.20;80.55;97355.34;5053554;28;20511;-39
2022/04/06 02:13:57;;;;;;;4.30;3.40;;;;;;;3.27;80.05;97361.91;5074946;28;20045;-39
2022/04/06 02:16:23;;;;;;;5.85;3.83;;;;;;;3.19;80.02;97360.56;5046009;28;20041;-38
2022/04/06 02:18:50;;;;;;;4.70;2.85;;;;;;;3.01;78.68;97348.50;5017675;28;20044;-38
2022/04/06 02:21:15;;;;;;;2.15;1.60;;;;;;;3.13;78.23;97387.34;5049903;28;20068;-40
2022/04/06 02:23:41;;;;;;;4.50;3.33;;;;;;;3.07;77.80;97374.75;5045907;28;20145;-39
2022/04/06 02:26:07;;;;;;;3.97;2.50;;;;;;;3.09;76.58;97388.34;5047910;28;20047;-40
2022/04/06 02:28:32;;;;;;;2.80;2.03;;;;;;;3.06;75.70;97383.34;5032098;28;20094;-39
2022/04/06 02:30:58;;;;;;;2.25;1.50;;;;;;;2.91;74.34;97378.84;5038638;28;20045;-37
2022/04/06 02:33:24;;;;;;;2.10;1.63;;;;;;;2.76;74.67;97367.47;5051357;28;20041;-39
2022/04/06 02:35:51;;;;;;;2.80;2.15;;;;;;;3.01;74.03;97394.69;5048244;28;20459;-40
2022/04/06 02:38:16;;;;;;;3.55;2.35;;;;;;;3.03;73.91;97414.28;5048161;28;20080;-40
2022/04/06 02:40:42;;;;;;;4.05;2.63;;;;;;;3.09;73.67;97406.28;5047887;28;20481;-39
2022/04/06 02:43:08;;;;;;;2.53;1.98;;;;;;;3.12;73.32;97413.88;5044673;28;20032;-38
2022/04/06 02:45:33;;;;;;;2.08;1.58;;;;;;;3.14;71.96;97416.41;5043513;28;20527;-39
2022/04/06 02:47:59;;;;;;;1.38;1.10;;;;;;;2.95;70.56;97403.47;5046300;28;20041;-38
2022/04/06 02:50:25;;;;;;;1.60;1.30;;;;;;;2.93;70.51;97415.53;5045047;28;20049;-39
2022/04/06 02:52:51;;;;;;;1.42;1.00;;;;;;;2.79;70.42;97395.56;5038092;28;20037;-38
2022/04/06 02:55:17;;;;;;;1.20;0.98;;;;;;;2.95;70.02;97424.00;5046689;28;20047;-38
2022/04/06 02:57:43;;;;;;;1.88;1.27;;;;;;;2.67;69.97;97405.47;5047117;28;20087;-37
2022/04/06 03:00:09;;;;;;;1.75;0.88;;;;;;;2.86;70.02;97439.75;5044960;28;20048;-39
2022/04/06 03:02:35;;;;;;;2.13;1.20;;;;;;;2.74;69.85;97424.84;5038313;28;20040;-39
2022/04/06 03:05:01;;;;;;;1.67;1.20;;;;;;;2.76;69.71;97438.47;5040341;28;20102;-39
2022/04/06 03:07:28;;;;;;;3.30;1.48;;;;;;;2.76;69.90;97444.44;5059684;28;20136;-39
2022/04/06 03:09:53;;;;;;;1.58;1.00;;;;;;;2.77;69.23;97458.94;5046486;28;20140;-43
2022/04/06 03:12:19;;;;;;;1.13;0.80;;;;;;;2.75;68.10;97470.13;5046457;28;20040;-39
2022/04/06 03:14:45;;;;;;;0.80;0.60;;;;;;;2.63;66.19;97471.44;5046350;28;20619;-41
2022/04/06 03:17:11;;;;;;;2.42;0.85;;;;;;;2.60;65.80;97486.94;5043662;28;20041;-39
2022/04/06 03:19:37;;;;;;;0.60;0.50;;;;;;;2.58;64.78;97491.28;5046194;28;20043;-39
2022/04/06 03:22:02;;;;;;;0.80;0.60;;;;;;;2.50;64.78;97489.03;5047994;28;20048;-39
2022/04/06 03:24:28;;;;;;;0.63;0.40;;;;;;;2.42;64.42;97503.84;5046273;28;20049;-39
2022/04/06 03:26:54;;;;;;;1.38;0.80;;;;;;;2.42;64.97;97495.31;5046388;28;20037;-38
2022/04/06 03:29:19;;;;;;;1.05;0.60;;;;;;;2.49;64.41;97513.00;5048054;28;20049;-39
2022/04/06 03:31:45;;;;;;;0.88;0.50;;;;;;;2.50;62.87;97506.97;5070771;28;20035;-39
2022/04/06 03:34:11;;;;;;;0.50;0.30;;;;;;;2.37;61.81;97540.78;5047401;28;20041;-39
2022/04/06 03:36:36;;;;;;;2.28;0.47;;;;;;;2.30;61.68;97523.97;5041334;28;20476;-39
2022/04/06 03:39:02;;;;;;;0.55;0.40;;;;;;;2.27;61.83;97530.03;5028728;28;20075;-38
2022/04/06 03:41:28;;;;;;;0.88;0.40;;;;;;;2.20;61.66;97540.56;5047763;28;20197;-38
2022/04/06 03:43:53;;;;;;;0.65;0.20;;;;;;;2.09;61.17;97528.94;5062227;28;20063;-39
2022/04/06 03:46:19;;;;;;;0.65;0.47;;;;;;;2.09;61.11;97548.63;5042450;28;20530;-39
2022/04/06 03:48:45;;;;;;;0.30;0.22;;;;;;;1.98;60.57;97559.25;5047259;28;20037;-38
2022/04/06 03:51:11;;;;;;;0.68;0.40;;;;;;;1.88;60.50;97537.41;5044127;28;20470;-38
2022/04/06 03:53:36;;;;;;;0.13;0.13;;;;;;;1.85;60.48;97534.94;5057596;28;20512;-39
2022/04/06 03:56:03;;;;;;;0.47;0.30;;;;;;;1.89;60.73;97554.44;5049556;28;20049;-39
2022/04/06 03:58:29;;;;;;;0.50;0.30;;;;;;;1.96;60.38;97568.72;5042932;28;20041;-39
2022/04/06 04:00:55;;;;;;;0.98;0.55;;;;;;;2.00;60.71;97574.56;5040133;28;20049;-39
2022/04/06 04:03:20;;;;;;;2.53;0.50;;;;;;;2.05;60.33;97570.94;5046223;28;20037;-40
2022/04/06 04:05:46;;;;;;;1.13;0.32;;;;;;;1.97;60.58;97570.38;5047506;28;20037;-39
2022/04/06 04:08:12;;;;;;;1.98;0.30;;;;;;;1.89;60.46;97579.19;5058975;28;20039;-38
2022/04/06 04:10:38;;;;;;;0.20;0.20;;;;;;;1.90;60.62;97591.13;5054918;28;20501;-38
2022/04/06 04:13:03;;;;;;;0.88;0.30;;;;;;;1.88;60.74;97595.50;5063991;28;20504;-40
2022/04/06 04:15:31;;;;;;;0.50;0.40;;;;;;;1.90;60.94;97601.38;5050998;28;20044;-39
2022/04/06 04:17:57;;;;;;;0.68;0.30;;;;;;;1.83;61.28;97605.88;5050106;28;20051;-39
2022/04/06 04:20:23;;;;;;;0.25;0.25;;;;;;;1.71;61.37;97585.78;5042188;28;20036;-38
2022/04/06 04:22:49;;;;;;;0.40;0.38;;;;;;;1.80;61.39;97602.56;5044586;28;20309;-39
2022/04/06 04:25:14;;;;;;;0.52;0.40;;;;;;;1.72;61.75;97599.44;5050884;28;20055;-39
2022/04/06 04:27:40;;;;;;;1.40;0.40;;;;;;;1.84;61.49;97611.81;5042528;28;20036;-38
2022/04/06 04:30:07;;;;;;;0.50;0.50;;;;;;;1.81;60.65;97617.91;5046438;28;20040;-39
2022/04/06 04:32:33;;;;;;;0.70;0.30;;;;;;;1.85;60.12;97622.03;5049939;28;20033;-38
2022/04/06 04:35:00;;;;;;;0.70;0.25;;;;;;;1.82;60.00;97618.75;5050471;28;20052;-39
2022/04/06 04:37:26;;;;;;;0.40;0.40;;;;;;;1.80;59.93;97633.31;5049872;28;20037;-39
2022/04/06 04:39:52;;;;;;;0.43;0.40;;;;;;;1.87;60.21;97637.34;5051592;28;20063;-40
2022/04/06 04:42:17;;;;;;;0.35;0.30;;;;;;;1.88;59.73;97649.28;5051913;28;20051;-42
2022/04/06 04:44:43;;;;;;;0.85;0.32;;;;;;;1.78;59.93;97637.66;5055006;28;20128;-40
2022/04/06 04:47:09;;;;;;;1.10;0.35;;;;;;;1.80;59.85;97646.94;5042317;28;20040;-42
2022/04/06 04:49:34;;;;;;;1.17;0.45;;;;;;;1.92;59.78;97644.00;5044662;28;20048;-41
2022/04/06 04:52:00;;;;;;;0.65;0.43;;;;;;;1.96;59.66;97655.81;5045298;28;20131;-41
2022/04/06 04:54:26;;;;;;;0.80;0.60;;;;;;;2.16;59.77;97651.75;5049721;28;20464;-41
2022/04/06 04:56:52;;;;;;;0.80;0.30;;;;;;;2.34;59.57;97669.09;5046906;28;20096;-39
2022/04/06 04:59:18;;;;;;;1.17;0.60;;;;;;;2.47;59.16;97670.34;5042093;28;20176;-41
2022/04/06 05:01:44;;;;;;;1.58;0.60;;;;;;;2.46;58.68;97671.25;5042648;28;20090;-43
2022/04/06 05:04:10;;;;;;;0.98;0.70;;;;;;;2.59;58.33;97675.06;5034304;28;20425;-40
2022/04/06 05:06:37;;;;;;;1.85;0.80;;;;;;;2.57;58.08;97692.22;5049019;28;20041;-41
2022/04/06 05:09:03;;;;;;;0.98;0.57;;;;;;;2.75;57.83;97681.34;5055058;28;20064;-40
2022/04/06 05:11:29;;;;;;;0.88;0.45;;;;;;;2.83;57.11;97670.78;5040766;28;20083;-42
2022/04/06 05:13:55;;;;;;;0.75;0.60;;;;;;;3.05;56.43;97674.25;5043966;28;20461;-41
2022/04/06 05:16:20;;;;;;;3.10;0.50;;;;;;;3.13;56.38;97668.84;5048528;28;20079;-41
2022/04/06 05:18:46;;;;;;;0.90;0.50;;;;;;;3.30;55.92;97687.84;5046866;28;20064;-42
2022/04/06 05:21:30;;;;;;;0.40;0.30;;;;;;;3.31;55.51;97696.41;5042670;28;20037;-41
2022/04/06 05:23:57;;;;;;;0.50;0.40;;;;;;;3.30;55.40;97698.13;5043499;28;20040;-42
2022/04/06 05:26:23;;;;;;;3.25;0.43;;;;;;;3.34;55.77;97698.88;5048679;28;20044;-41
2022/04/06 05:28:49;;;;;;;0.50;0.30;;;;;;;3.10;54.87;97664.66;5040873;28;20032;-42
2022/04/06 05:31:17;;;;;;;0.30;0.30;;;;;;;3.14;55.00;97714.97;5044124;28;20627;-40
2022/04/06 05:33:43;;;;;;;2.45;0.38;;;;;;;3.04;55.34;97713.63;5047930;28;20041;-41
2022/04/06 05:36:09;;;;;;;1.65;0.50;;;;;;;3.14;54.82;97727.00;5048100;28;20068;-41
2022/04/06 05:38:35;;;;;;;0.45;0.32;;;;;;;3.15;54.30;97731.22;5036670;28;20171;-41
2022/04/06 05:41:02;;;;;;;1.33;0.50;;;;;;;3.03;54.78;97723.97;5044672;28;20575;-41
2022/04/06 05:43:28;;;;;;;2.38;0.85;;;;;;;3.21;54.88;97731.84;5042375;28;20040;-40
2022/04/06 05:45:54;;;;;;;0.65;0.30;;;;;;;3.46;54.11;97742.06;5042445;28;20048;-41
2022/04/06 05:48:20;;;;;;;0.30;0.30;;;;;;;3.34;52.80;97745.94;5045512;28;20052;-42
2022/04/06 05:50:46;;;;;;;1.85;0.40;;;;;;;3.42;53.60;97748.19;5052349;28;20048;-42
2022/04/06 05:53:12;;;;;;;0.30;0.30;;;;;;;3.57;53.17;97747.63;5048009;28;20037;-47
2022/04/06 05:55:38;;;;;;;0.50;0.30;;;;;;;3.83;51.98;97744.91;5053298;28;20041;-42
2022/04/06 05:58:03;;;;;;;3.78;0.20;;;;;;;3.88;52.09;97728.47;5061560;28;20053;-45
2022/04/06 06:00:29;;;;;;;0.45;0.30;;;;;;;4.29;51.09;97750.84;5072290;28;20103;-41
2022/04/06 06:02:55;;;;;;;0.90;0.52;;;;;;;4.86;50.31;97751.91;5045819;28;20037;-43
2022/04/06 06:05:21;;;;;;;0.60;0.30;;;;;;;5.09;49.19;97772.34;5048744;28;20132;-41
2022/04/06 06:07:46;;;;;;;1.52;0.40;;;;;;;4.98;47.93;97771.97;5050373;28;20519;-43
2022/04/06 06:10:12;;;;;;;3.75;0.38;;;;;;;5.69;47.81;97773.97;5047656;28;20044;-42
2022/04/06 06:12:38;;;;;;;0.90;0.40;;;;;;;6.75;44.46;97774.06;5049149;28;20120;-43
2022/04/06 06:15:07;;;;;;;0.60;0.50;;;;;;;7.23;42.10;97790.59;5049862;28;20359;-42
2022/04/06 06:17:37;;;;;;;3.22;0.52;;;;;;;7.45;41.11;97756.72;5045018;28;20096;-42
2022/04/06 06:20:04;;;;;;;1.55;0.32;;;;;;;7.49;39.89;97784.91;5049624;28;20044;-41
2022/04/06 06:22:30;;;;;;;0.80;0.50;;;;;;;9.32;38.35;97783.25;5062372;28;20052;-44
2022/04/06 06:24:55;;;;;;;0.85;0.30;;;;;;;10.38;34.57;97784.47;5061675;28;20048;-42
2022/04/06 06:27:23;;;;;;;0.63;0.50;;;;;;;9.67;35.44;97800.16;5046562;28;20715;-42
2022/04/06 06:29:49;;;;;;;0.90;0.30;;;;;;;9.41;35.04;97795.72;5047001;28;20045;-41
2022/04/06 06:32:15;;;;;;;1.08;0.40;;;;;;;10.08;34.80;97789.81;5045984;28;20052;-40
2022/04/06 06:34:41;;;;;;;0.52;0.43;;;;;;;11.38;33.17;97787.38;5054975;28;21057;-40
2022/04/06 06:37:07;;;;;;;1.25;0.93;;;;;;;12.67;31.61;97794.72;5044366;28;20132;-40
2022/04/06 06:39:33;;;;;;;0.68;0.50;;;;;;;13.64;29.86;97796.19;5047987;28;20477;-40
2022/04/06 06:41:58;;;;;;;0.50;0.50;;;;;;;14.23;28.59;97800.22;5047495;28;20072;-39
2022/04/06 06:44:24;;;;;;;0.40;0.35;;;;;;;14.48;27.49;97799.09;5047232;28;20588;-41
2022/04/06 06:46:50;;;;;;;1.27;0.70;;;;;;;15.38;26.25;97787.28;5048097;28;20128;-42
2022/04/06 06:49:16;;;;;;;0.88;0.50;;;;;;;15.48;25.76;97803.06;5048188;28;20500;-41
2022/04/06 06:51:42;;;;;;;1.02;0.50;;;;;;;15.34;25.34;97806.81;5047679;28;20469;-41
2022/04/06 06:54:07;;;;;;;0.85;0.50;;;;;;;15.40;25.58;97800.22;5046816;28;20052;-41
2022/04/06 06:56:33;;;;;;;1.33;0.70;;;;;;;15.86;24.91;97805.88;5047595;28;20049;-40
2022/04/06 06:58:59;;;;;;;2.63;0.60;;;;;;;16.22;24.12;97795.81;5044400;28;20063;-41
2022/04/06 07:01:25;;;;;;;1.25;0.68;;;;;;;17.17;22.71;97791.63;5047964;28;20045;-40
2022/04/06 07:03:51;;;;;;;0.70;0.60;;;;;;;17.71;21.67;97815.47;5047829;28;20048;-41
2022/04/06 07:06:17;;;;;;;1.23;0.60;;;;;;;17.31;22.11;97801.72;5047920;28;20060;-39
2022/04/06 07:08:43;;;;;;;1.40;0.88;;;;;;;18.33;22.19;97811.34;5046364;28;20057;-41
2022/04/06 07:11:09;;;;;;;0.73;0.60;;;;;;;19.29;19.80;97821.22;5047545;28;20044;-40
2022/04/06 07:13:35;;;;;;;3.03;0.77;;;;;;;17.50;21.35;97817.44;5048023;28;20049;-40
2022/04/06 07:16:02;;;;;;;1.13;0.70;;;;;;;15.50;23.79;97817.66;5048019;28;20512;-40
2022/04/06 07:18:28;;;;;;;1.27;0.70;;;;;;;16.18;22.50;97810.97;5047915;28;20040;-41
2022/04/06 07:20:54;;;;;;;2.97;0.75;;;;;;;17.20;22.39;97817.63;5047597;28;20423;-41
2022/04/06 07:23:19;;;;;;;1.13;0.70;;;;;;;18.80;21.04;97814.69;5046830;28;20596;-41
2022/04/06 07:25:45;;;;;;;2.08;0.90;;;;;;;17.62;21.51;97826.84;5047161;28;20072;-41
2022/04/06 07:28:11;;;;;;;1.38;0.80;;;;;;;17.54;21.85;97816.19;5046994;28;20037;-40
2022/04/06 07:30:37;;;;;;;1.90;0.82;;;;;;;18.39;20.54;97844.97;5045869;28;20045;-41
2022/04/06 07:33:03;;;;;;;2.30;1.83;;;;;;;18.31;20.37;97826.47;5045871;28;20044;-42
2022/04/06 07:35:31;;;;;;;2.10;0.90;;;;;;;18.29;20.18;97828.41;5045789;28;20041;-42
2022/04/06 07:37:57;;;;;;;0.95;0.60;;;;;;;18.69;20.15;97829.84;5046300;28;20047;-40
2022/04/06 07:40:23;;;;;;;1.63;0.68;;;;;;;19.44;18.65;97837.31;5048133;28;20041;-42
2022/04/06 07:42:50;;;;;;;0.82;0.60;;;;;;;19.11;17.64;97849.38;5059064;28;20048;-41
2022/04/06 07:45:18;;;;;;;0.75;0.40;;;;;;;18.85;18.14;97845.81;5051662;28;20040;-40
2022/04/06 07:47:48;;;;;;;3.00;0.95;;;;;;;19.24;17.82;97849.00;5050083;28;20047;-41
2022/04/06 07:50:15;;;;;;;5.55;0.80;;;;;;;19.65;17.74;97832.53;5051338;28;20152;-40
2022/04/06 07:52:42;;;;;;;3.92;1.00;;;;;;;20.54;16.74;97858.59;5050090;28;20047;-40
2022/04/06 07:55:09;;;;;;;1.80;0.60;;;;;;;19.29;17.53;97839.66;5066703;28;20532;-40
2022/04/06 07:57:36;;;;;;;1.83;0.93;;;;;;;20.06;17.24;97833.59;5059440;28;20512;-40
2022/04/06 08:00:15;;;;;;;2.05;0.80;;;;;;;20.35;16.73;97833.28;5049784;28;20039;-40
2022/04/06 08:02:41;;;;;;;;;;;;;;;20.30;16.99;97838.19;5050415;28;20131;-41
2022/04/06 08:05:07;;;;;;;1.05;0.70;;;;;;;19.34;17.21;97833.94;5049638;28;20007;-40
2022/04/06 08:07:33;;;;;;;1.33;0.70;;;;;;;20.51;16.32;97828.06;5051128;28;20172;-41
2022/04/06 08:09:59;;;;;;;3.50;0.80;;;;;;;21.23;15.59;97839.78;5050863;28;20489;-41
2022/04/06 08:12:25;;;;;;;5.15;1.00;;;;;;;20.66;15.74;97833.56;5049558;28;20060;-42
2022/04/06 08:14:51;;;;;;;5.45;1.00;;;;;;;20.19;15.72;97834.03;5066467;28;20037;-40
2022/04/06 08:17:17;;;;;;;4.60;0.80;;;;;;;19.96;15.72;97837.34;5049547;28;20513;-41
2022/04/06 08:19:43;;;;;;;0.57;0.57;;;;;;;20.46;14.40;97833.00;5050411;28;20508;-41
2022/04/06 08:22:08;;;;;;;2.15;0.73;;;;;;;19.89;15.40;97853.78;5049533;28;20049;-40
2022/04/06 08:24:34;;;;;;;1.10;0.70;;;;;;;19.78;15.75;97843.50;5050521;28;20123;-42
2022/04/06 08:27:00;;;;;;;0.93;0.60;;;;;;;19.48;15.37;97845.75;5050267;28;20484;-43
2022/04/06 08:29:26;;;;;;;0.90;0.60;;;;;;;19.61;15.52;97840.94;5050629;28;20044;-41
2022/04/06 08:31:52;;;;;;;0.95;0.60;;;;;;;19.63;15.76;97844.22;5050846;28;20044;-41
2022/04/06 08:34:18;;;;;;;3.17;0.95;;;;;;;19.19;15.23;97840.72;5049286;28;20082;-41
2022/04/06 08:36:45;;;;;;;0.68;0.60;;;;;;;19.34;15.16;97840.03;5050323;28;20474;-41
2022/04/06 08:39:11;;;;;;;0.60;0.60;;;;;;;19.03;14.44;97860.69;5050492;28;20056;-42
2022/04/06 08:41:37;;;;;;;1.80;0.82;;;;;;;18.21;15.31;97838.84;5050344;28;20048;-42
2022/04/06 08:44:03;;;;;;;2.95;0.90;;;;;;;17.90;15.26;97840.06;5050123;28;20068;-41
2022/04/06 08:46:39;;;;;;;4.53;1.77;;;;;;;19.51;15.57;97838.38;5050284;28;20041;-43
2022/04/06 08:49:05;;;;;;;1.33;0.85;;;;;;;21.54;14.44;97842.59;5044885;28;20064;-43
2022/04/06 08:51:34;;;;;;;2.38;0.60;;;;;;;21.31;13.03;97842.41;5028765;28;20521;-41
2022/04/06 08:54:00;;;;;;;0.95;0.68;;;;;;;21.06;13.25;97841.56;5030238;28;20041;-41
2022/04/06 08:56:25;;;;;;;1.08;0.70;;;;;;;20.96;13.58;97832.13;5030516;28;20054;-42
2022/04/06 08:58:51;;;;;;;5.72;1.00;;;;;;;22.06;13.55;97834.25;5046384;28;20053;-40
2022/04/06 09:01:18;;;;;;;0.93;0.70;;;;;;;23.18;12.84;97846.16;5050041;28;20429;-40
2022/04/06 09:03:46;;;;;;;3.45;1.00;;;;;;;22.08;12.93;97850.81;5050181;28;20044;-44
2022/04/06 09:06:12;;;;;;;6.03;1.13;;;;;;;21.68;12.79;97849.84;5049977;28;20043;-40
2022/04/06 09:08:40;;;;;;;3.13;0.98;;;;;;;21.19;12.69;97843.75;5048144;28;20091;-41
2022/04/06 09:11:29;;;;;;;1.63;0.70;;;;;;;20.59;12.75;97858.94;5048393;28;20040;-42
2022/04/06 09:14:02;;;;;;;1.25;0.80;;;;;;;20.56;12.65;97817.03;5049338;28;20044;-43
2022/04/06 09:16:32;;;;;;;0.57;0.57;;;;;;;21.61;12.11;97822.44;5049837;28;20079;-41
2022/04/06 09:19:09;;;;;;;1.55;0.75;;;;;;;21.71;11.58;97833.66;5049489;28;20144;-41
2022/04/06 09:21:40;;;;;;;1.33;0.80;;;;;;;22.12;11.69;97828.28;5065420;28;20033;-41
2022/04/06 09:24:13;;;;;;;1.10;0.63;;;;;;;22.15;11.77;97843.81;5048573;28;20040;-42
2022/04/06 09:26:38;;;;;;;0.80;0.70;;;;;;;22.76;11.92;97838.63;5049290;28;20433;-41
2022/04/06 09:29:04;;;;;;;3.03;0.80;;;;;;;24.25;11.72;97833.56;5064538;28;20075;-41
2022/04/06 09:31:37;;;;;;;2.38;0.77;;;;;;;24.52;10.55;97816.13;5049275;28;20428;-41
2022/04/06 09:34:03;;;;;;;0.95;0.63;;;;;;;23.48;10.13;97846.28;5048322;28;20470;-41
2022/04/06 09:36:30;;;;;;;0.85;0.73;;;;;;;22.49;10.48;97839.06;5081648;28;20132;-42
2022/04/06 09:38:56;;;;;;;1.08;0.73;;;;;;;22.64;10.81;97839.16;5047680;28;20041;-42
2022/04/06 09:41:22;;;;;;;1.50;0.82;;;;;;;23.18;9.99;97834.72;5049460;28;20044;-40
2022/04/06 09:43:50;;;;;;;0.60;0.60;;;;;;;23.74;10.13;97827.28;5047669;28;20132;-41
2022/04/06 09:49:08;;;;;;;1.63;0.70;;;;;;;24.54;9.94;97811.47;5033452;28;20041;-42
2022/04/06 09:51:39;;;;;;;1.30;0.70;;;;;;;24.01;10.22;97822.22;5049549;28;20048;-44
2022/04/06 09:54:07;;;;;;;2.35;0.90;;;;;;;23.98;10.35;97824.38;5049581;28;20041;-41
2022/04/06 09:56:34;;;;;;;1.38;0.90;;;;;;;23.48;10.96;97817.09;5047767;28;20094;-41
2022/04/06 09:59:02;;;;;;;2.17;0.73;;;;;;;23.04;11.02;97822.22;5045418;28;20160;-42
2022/04/06 10:01:33;;;;;;;4.57;0.70;;;;;;;22.31;11.56;97830.53;5049114;28;20052;-40
2022/04/06 10:04:03;;;;;;;0.80;0.50;;;;;;;19.96;12.81;97824.97;5048068;28;20098;-42
2022/04/06 10:06:40;;;;;;;0.98;0.70;;;;;;;18.82;13.73;97832.97;5048603;28;20114;-43
2022/04/06 10:09:08;;;;;;;2.45;2.15;;;;;;;20.27;13.52;97820.84;5047519;28;20037;-39
2022/04/06 10:11:35;;;;;;;2.05;0.80;;;;;;;22.03;12.53;97811.63;5048969;28;20037;-41
2022/04/06 10:14:04;;;;;;;1.88;0.70;;;;;;;22.39;11.61;97833.97;5047185;28;20824;-41
2022/04/06 10:16:30;;;;;;;;;;;;;;;20.77;12.34;97822.69;5047963;28;20047;-41
2022/04/06 10:18:57;;;;;;;0.85;0.80;;;;;;;20.97;12.57;97825.84;5063657;28;19927;-42
2022/04/06 10:21:48;;;;;;;0.82;0.82;;;;;;;20.39;12.55;97837.25;5047155;28;20043;-41
2022/04/06 10:24:22;;;;;;;0.82;0.70;;;;;;;19.48;13.17;97833.41;5063424;28;20051;-42
2022/04/06 10:27:27;;;;;;;0.40;0.40;;;;;;;19.77;13.37;97830.47;5047922;28;20548;-41
2022/04/06 10:30:13;;;;;;;3.33;0.70;;;;;;;19.83;13.60;97828.06;5046339;28;20052;-40
2022/04/06 10:32:44;;;;;;;2.78;1.42;;;;;;;21.09;12.88;97822.72;5048260;28;20131;-43
2022/04/06 10:35:36;;;;;;;1.15;0.60;;;;;;;21.33;12.81;97826.41;5046582;28;20080;-42
2022/04/06 10:38:05;;;;;;;1.48;0.70;;;;;;;21.98;12.36;97837.78;5028084;28;20041;-40
2022/04/06 10:40:46;;;;;;;2.45;0.60;;;;;;;18.99;13.50;97825.09;5028277;28;20515;-40
2022/04/06 10:43:33;;;;;;;0.43;0.43;;;;;;;18.20;13.67;97819.59;5034688;28;20119;-40
2022/04/06 10:45:59;;;;;;;1.35;0.70;;;;;;;19.18;13.19;97813.56;5041286;28;20032;-42
2022/04/06 10:48:25;;;;;;;1.27;0.80;;;;;;;20.20;12.78;97808.47;5046840;28;20546;-41
2022/04/06 10:50:50;;;;;;;1.17;0.70;;;;;;;21.42;12.26;97798.97;5048030;28;20036;-42
2022/04/06 10:53:19;;;;;;;4.88;0.80;;;;;;;20.99;12.65;97808.00;5079998;28;20044;-42
2022/04/06 10:56:16;;;;;;;3.40;0.88;;;;;;;19.36;13.97;97824.91;5046770;28;20071;-41
2022/04/06 10:58:57;;;;;;;1.40;0.80;;;;;;;19.33;14.27;97825.19;5045555;28;20044;-41
2022/04/06 11:01:30;;;;;;;1.88;0.80;;;;;;;19.89;13.80;97843.25;5048074;28;20425;-40
2022/04/06 11:03:59;;;;;;;1.00;0.90;;;;;;;20.89;13.54;97812.63;5047496;28;20040;-41
2022/04/06 11:06:44;;;;;;;0.82;0.80;;;;;;;21.01;13.37;97809.50;5047714;28;20457;-40
2022/04/06 11:12:21;;;;;;;1.80;0.70;;;;;;;20.33;13.01;97808.84;5047769;28;20060;-43
2022/04/06 11:14:49;;;;;;;1.90;0.80;;;;;;;19.83;13.90;97806.13;5048370;28;20040;-41
2022/04/06 11:17:32;;;;;;;2.70;1.02;;;;;;;20.64;13.67;97807.31;5050362;28;20041;-40
2022/04/06 11:19:58;;;;;;;0.60;0.50;;;;;;;18.59;14.15;97814.13;5051727;28;20048;-42
2022/04/06 11:22:25;;;;;;;1.33;0.98;;;;;;;18.84;14.24;97838.94;5051477;28;20124;-42
2022/04/06 11:24:51;;;;;;;1.23;0.70;;;;;;;18.68;14.02;97812.44;5051538;28;20187;-43
2022/04/06 11:27:36;;;;;;;0.70;0.70;;;;;;;18.39;14.30;97818.66;5051121;28;20041;-41
2022/04/06 11:30:07;;;;;;;1.48;0.63;;;;;;;18.31;14.10;97828.25;5050101;28;20524;-41
2022/04/06 11:32:34;;;;;;;1.38;0.73;;;;;;;18.31;14.03;97808.06;5049998;28;20131;-42
2022/04/06 11:35:02;;;;;;;1.80;1.00;;;;;;;18.68;14.04;97799.28;5050813;28;20056;-41
2022/04/06 11:37:28;;;;;;;2.28;1.00;;;;;;;19.32;13.54;97797.19;5050627;28;20522;-41
2022/04/06 11:40:01;;;;;;;4.53;0.98;;;;;;;18.86;13.62;97814.09;5060845;28;20103;-41
2022/04/06 11:42:27;;;;;;;0.98;0.90;;;;;;;17.95;14.28;97791.31;5049115;28;20815;-40
2022/04/06 11:44:53;;;;;;;1.55;0.88;;;;;;;18.62;13.94;97784.91;5051365;28;20625;-43
2022/04/06 11:47:33;;;;;;;2.13;0.90;;;;;;;20.13;13.35;97792.44;5049735;28;20476;-40
2022/04/06 11:50:00;;;;;;;2.65;0.85;;;;;;;21.20;12.97;97787.25;5050999;28;20032;-42
2022/04/06 11:52:25;;;;;;;1.90;0.95;;;;;;;21.99;12.10;97786.47;5050037;28;20095;-42